Bonnard, Canada
Current Conditions -  °F | °C
As of 1:00 PM on Thursday 23 Oct 2014 (Local Time) from CYRJ Reporting Station
Broken Clouds Broken Clouds  
Wind Chill: 40°   Ceiling: 22000
Heat Index: 43°   Visibility: 40mi
Dew Point: 27°   Wind: 5mph
Humidity: 53%   Direction: 40°NE
Pressure: 30.23"   Gusts: NA
Location:  50.73°N, 71.02°W
Report Text: CYRJ 231700Z 04004KT 320V090 40SM FEW030 BKN220 06/M03 A3023 RMK SC1CI5 SC TR SLP245
Loading
Personal Weather Stations






























Interactive Weather Map
Tropical Storm Tracking
New forecast layout! Learn more

10-Day Weather Forecast

Advertisements
Track Severe Weather on mobile